createdAt,value
2023-01-17T00:01:34.067Z,4.00
2023-01-17T00:04:21.211Z,4.20
2023-01-17T00:07:06.819Z,4.30
2023-01-17T00:09:52.425Z,4.40
2023-01-17T00:12:21.630Z,4.50
2023-01-17T00:14:50.402Z,4.40
2023-01-17T00:17:18.532Z,4.40
2023-01-17T00:20:05.518Z,4.40
2023-01-17T00:22:51.123Z,4.30
2023-01-17T00:25:38.517Z,4.30
2023-01-17T00:28:06.288Z,4.20
2023-01-17T00:30:33.921Z,4.20
2023-01-17T00:33:00.885Z,4.20
2023-01-17T00:35:30.812Z,4.20
2023-01-17T00:38:03.457Z,4.20
2023-01-17T00:40:30.904Z,4.30
2023-01-17T00:43:16.577Z,4.30
2023-01-17T00:46:03.147Z,4.40
2023-01-17T00:48:48.917Z,4.30
2023-01-17T00:51:36.715Z,4.20
2023-01-17T00:54:22.762Z,4.20
2023-01-17T00:57:08.344Z,4.30
2023-01-17T00:59:53.967Z,4.30
2023-01-17T01:02:40.221Z,4.30
2023-01-17T01:05:26.851Z,4.40
2023-01-17T01:08:14.049Z,4.40
2023-01-17T01:11:00.119Z,4.40
2023-01-17T01:13:47.483Z,4.40
2023-01-17T01:16:33.995Z,4.40
2023-01-17T01:19:19.393Z,4.40
2023-01-17T01:22:05.316Z,4.20
2023-01-17T01:24:52.534Z,4.30
2023-01-17T01:27:37.902Z,4.30
2023-01-17T01:30:24.668Z,4.30
2023-01-17T01:33:10.540Z,4.30
2023-01-17T01:35:38.946Z,4.30
2023-01-17T01:38:07.089Z,4.40
2023-01-17T01:40:36.663Z,4.40
2023-01-17T01:43:05.994Z,4.40
2023-01-17T01:45:34.406Z,4.50
2023-01-17T01:48:06.880Z,4.50
2023-01-17T01:50:37.543Z,4.50
2023-01-17T01:53:08.082Z,4.30
2023-01-17T01:55:41.840Z,4.30
2023-01-17T01:58:14.262Z,4.30
2023-01-17T02:00:43.061Z,4.30
2023-01-17T02:03:15.118Z,4.40
2023-01-17T02:05:44.591Z,4.40
2023-01-17T02:08:15.819Z,4.30
2023-01-17T02:10:45.887Z,4.30
2023-01-17T02:13:17.403Z,4.30
2023-01-17T02:15:58.147Z,4.30
2023-01-17T02:18:38.078Z,4.20
2023-01-17T02:21:30.857Z,4.30
2023-01-17T02:24:29.305Z,4.20
2023-01-17T02:27:04.265Z,4.20
2023-01-17T02:30:14.740Z,4.20
2023-01-17T02:32:55.572Z,4.20
2023-01-17T02:35:31.143Z,4.20
2023-01-17T02:38:04.650Z,4.20
2023-01-17T02:40:39.126Z,4.20
2023-01-17T02:43:11.815Z,4.30
2023-01-17T02:45:40.074Z,4.20
2023-01-17T02:48:12.354Z,4.30
2023-01-17T02:50:56.797Z,4.30
2023-01-17T02:53:37.342Z,4.30
2023-01-17T02:56:16.403Z,4.30
2023-01-17T02:59:03.041Z,4.30
2023-01-17T03:01:40.381Z,4.20
2023-01-17T03:04:21.815Z,4.30
2023-01-17T03:06:54.835Z,4.20
2023-01-17T03:09:23.759Z,4.20
2023-01-17T03:11:52.064Z,4.20
2023-01-17T03:14:20.225Z,4.20
2023-01-17T03:16:48.824Z,4.20
2023-01-17T03:19:17.141Z,4.20
2023-01-17T03:21:46.620Z,4.30
2023-01-17T03:24:14.776Z,4.30
2023-01-17T03:26:44.945Z,4.40
2023-01-17T03:29:13.131Z,4.40
2023-01-17T03:31:41.356Z,4.40
2023-01-17T03:34:09.539Z,4.40
2023-01-17T03:36:37.692Z,4.50
2023-01-17T03:39:07.321Z,4.50
2023-01-17T03:41:35.498Z,4.50
2023-01-17T03:44:04.124Z,4.50
2023-01-17T03:46:32.430Z,4.50
2023-01-17T03:49:00.641Z,4.60
2023-01-17T03:51:28.814Z,4.50
2023-01-17T03:53:56.967Z,4.60
2023-01-17T03:56:26.592Z,4.70
2023-01-17T03:58:54.837Z,4.70
2023-01-17T04:01:23.189Z,4.70
2023-01-17T04:03:51.522Z,4.70
2023-01-17T04:06:19.669Z,4.70
2023-01-17T04:08:47.796Z,4.70
2023-01-17T04:11:15.943Z,4.70
2023-01-17T04:13:45.437Z,4.70
2023-01-17T04:16:17.629Z,4.70
2023-01-17T04:18:46.125Z,4.70
2023-01-17T04:21:14.235Z,4.70
2023-01-17T04:23:42.393Z,4.70
2023-01-17T04:26:12.419Z,4.70
2023-01-17T04:28:40.827Z,4.70
2023-01-17T04:31:15.304Z,4.70
2023-01-17T04:33:43.542Z,4.70
2023-01-17T04:36:11.712Z,4.70
2023-01-17T04:38:39.829Z,4.70
2023-01-17T04:41:07.949Z,4.70
2023-01-17T04:43:36.204Z,4.70
2023-01-17T04:46:05.865Z,4.70
2023-01-17T04:48:35.435Z,4.70
2023-01-17T04:51:05.300Z,4.50
2023-01-17T04:53:33.554Z,4.50
2023-01-17T04:56:02.151Z,4.50
2023-01-17T04:58:31.387Z,4.40
2023-01-17T05:01:04.125Z,4.50
2023-01-17T05:03:32.643Z,4.40
2023-01-17T05:06:02.488Z,4.40
2023-01-17T05:08:30.703Z,4.30
2023-01-17T05:10:58.858Z,4.30
2023-01-17T05:13:27.184Z,4.30
2023-01-17T05:15:55.534Z,4.30
2023-01-17T05:18:23.844Z,4.30
2023-01-17T05:20:52.178Z,4.30
2023-01-17T05:23:21.711Z,4.30
2023-01-17T05:25:49.853Z,4.30
2023-01-17T05:28:18.134Z,4.30
2023-01-17T05:30:46.311Z,4.20
2023-01-17T05:33:14.524Z,4.20
2023-01-17T05:35:42.693Z,4.20
2023-01-17T05:38:10.938Z,4.20
2023-01-17T05:40:40.520Z,4.20
2023-01-17T05:43:09.618Z,4.20
2023-01-17T05:45:37.808Z,4.20
2023-01-17T05:48:06.694Z,4.30
2023-01-17T05:50:37.465Z,4.20
2023-01-17T05:53:07.935Z,4.20
2023-01-17T05:55:37.147Z,4.30
2023-01-17T05:58:07.221Z,4.30
2023-01-17T06:00:35.803Z,4.30
2023-01-17T06:03:04.057Z,4.20
2023-01-17T06:05:32.923Z,4.20
2023-01-17T06:08:01.350Z,4.20
2023-01-17T06:10:30.090Z,4.20
2023-01-17T06:13:07.682Z,4.20
2023-01-17T06:15:37.108Z,4.20
2023-01-17T06:18:06.693Z,4.20
2023-01-17T06:20:35.096Z,4.20
2023-01-17T06:23:04.533Z,4.20
2023-01-17T06:25:37.795Z,4.20
2023-01-17T06:28:07.692Z,4.30
2023-01-17T06:30:35.973Z,4.30
2023-01-17T06:33:04.537Z,4.30
2023-01-17T06:35:32.881Z,4.30
2023-01-17T06:38:01.168Z,4.40
2023-01-17T06:40:30.520Z,4.20
2023-01-17T06:43:01.582Z,4.00
2023-01-17T06:45:32.714Z,3.30
2023-01-17T06:48:03.711Z,2.80
2023-01-17T06:50:32.117Z,2.80
2023-01-17T06:53:02.619Z,3.00
2023-01-17T06:55:33.672Z,3.30
2023-01-17T06:58:02.971Z,3.50
2023-01-17T07:00:35.053Z,3.80
2023-01-17T07:03:03.830Z,3.90
2023-01-17T07:05:32.767Z,3.90
2023-01-17T07:08:00.990Z,4.00
2023-01-17T07:10:29.290Z,4.10
2023-01-17T07:13:00.766Z,4.10
2023-01-17T07:15:29.033Z,4.10
2023-01-17T07:18:01.474Z,4.10
2023-01-17T07:20:29.667Z,4.20
2023-01-17T07:22:58.083Z,4.10
2023-01-17T07:25:27.870Z,4.10
2023-01-17T07:28:14.701Z,4.10
2023-01-17T07:30:44.075Z,4.10
2023-01-17T07:33:13.815Z,4.00
2023-01-17T07:35:44.182Z,4.00
2023-01-17T07:38:16.018Z,4.00
2023-01-17T07:40:44.265Z,4.00
2023-01-17T07:43:14.590Z,4.00
2023-01-17T07:45:44.198Z,4.00
2023-01-17T07:48:14.059Z,4.00
2023-01-17T07:50:42.440Z,4.00
2023-01-17T07:53:10.947Z,3.90
2023-01-17T07:55:39.162Z,3.90
2023-01-17T07:58:07.305Z,3.90
2023-01-17T08:00:35.456Z,3.90
2023-01-17T08:03:03.703Z,3.90
2023-01-17T08:05:33.243Z,3.80
2023-01-17T08:08:01.389Z,3.90
2023-01-17T08:10:29.572Z,3.60
2023-01-17T08:12:57.745Z,3.70
2023-01-17T08:15:26.723Z,3.70
2023-01-17T08:17:54.941Z,3.70
2023-01-17T08:20:23.956Z,3.70
2023-01-17T08:22:58.033Z,3.80
2023-01-17T08:25:27.074Z,3.80
2023-01-17T08:27:58.765Z,3.30
2023-01-17T08:30:26.997Z,2.40
2023-01-17T08:32:55.333Z,1.70
2023-01-17T08:35:23.829Z,1.30
2023-01-17T08:37:55.676Z,1.50
2023-01-17T08:41:08.045Z,2.00
2023-01-17T08:43:37.577Z,2.50
2023-01-17T08:46:06.395Z,2.80
2023-01-17T08:48:34.605Z,2.90
2023-01-17T08:51:03.488Z,3.00
2023-01-17T08:53:31.798Z,3.20
2023-01-17T08:56:00.610Z,3.30
2023-01-17T08:58:30.802Z,3.40
2023-01-17T09:01:03.705Z,3.10
2023-01-17T09:03:32.189Z,3.10
2023-01-17T09:06:05.320Z,2.90
2023-01-17T09:08:33.876Z,2.70
2023-01-17T09:11:04.454Z,2.60
2023-01-17T09:13:32.860Z,2.40
2023-01-17T09:16:03.023Z,2.70
2023-01-17T09:18:32.272Z,2.70
2023-01-17T09:21:00.419Z,2.60
2023-01-17T09:23:30.633Z,2.80
2023-01-17T09:26:00.636Z,2.60
2023-01-17T09:28:29.349Z,2.60
2023-01-17T09:30:57.548Z,2.90
2023-01-17T09:33:27.159Z,2.70
2023-01-17T09:35:55.317Z,2.70
2023-01-17T09:38:23.833Z,2.80
2023-01-17T09:40:51.970Z,2.90
2023-01-17T09:43:25.145Z,3.00
2023-01-17T09:45:53.569Z,3.00
2023-01-17T09:48:35.704Z,3.40
2023-01-17T09:51:10.761Z,3.30
2023-01-17T09:53:41.603Z,3.30
2023-01-17T09:56:13.443Z,3.40
2023-01-17T09:58:48.405Z,3.40
2023-01-17T10:01:23.794Z,3.40
2023-01-17T10:04:07.154Z,3.40
2023-01-17T10:06:50.551Z,3.30
2023-01-17T10:09:34.013Z,3.30
2023-01-17T10:12:18.690Z,3.30
2023-01-17T10:15:07.093Z,3.30
2023-01-17T10:17:44.788Z,3.50
2023-01-17T10:20:34.053Z,3.50
2023-01-17T10:23:25.209Z,3.40
2023-01-17T10:25:57.951Z,3.60
2023-01-17T10:28:33.965Z,3.90
2023-01-17T10:31:07.112Z,4.00
2023-01-17T10:33:40.622Z,4.20
2023-01-17T10:36:15.893Z,4.20
2023-01-17T10:38:48.057Z,3.90
2023-01-17T10:41:23.196Z,3.80
2023-01-17T10:43:59.491Z,3.70
2023-01-17T10:46:33.288Z,3.60
2023-01-17T10:49:02.340Z,3.50
2023-01-17T10:51:50.520Z,3.40
2023-01-17T10:54:30.761Z,3.50
2023-01-17T10:57:02.913Z,3.50
2023-01-17T10:59:33.585Z,3.50
2023-01-17T11:02:07.801Z,3.50
2023-01-17T11:04:38.235Z,3.60
2023-01-17T11:07:16.667Z,3.50
2023-01-17T11:09:46.539Z,3.60
2023-01-17T11:12:25.421Z,3.60
2023-01-17T11:15:02.364Z,3.60
2023-01-17T11:17:31.754Z,3.70
2023-01-17T11:20:17.175Z,3.70
2023-01-17T11:23:03.216Z,3.80
2023-01-17T11:25:34.123Z,3.90
2023-01-17T11:28:05.361Z,3.90
2023-01-17T11:30:33.971Z,3.90
2023-01-17T11:33:06.079Z,3.90
2023-01-17T11:35:36.716Z,4.00
2023-01-17T11:38:20.040Z,4.00
2023-01-17T11:40:49.587Z,4.10
2023-01-17T11:43:23.872Z,4.20
2023-01-17T11:46:04.693Z,4.20
2023-01-17T11:48:37.967Z,4.20
2023-01-17T11:51:17.848Z,4.20
2023-01-17T11:53:49.153Z,4.30
2023-01-17T11:56:28.036Z,4.30
2023-01-17T11:59:18.913Z,4.30
2023-01-17T12:02:01.188Z,4.30
2023-01-17T12:04:37.055Z,4.30
2023-01-17T12:07:21.623Z,4.30
2023-01-17T12:10:00.152Z,4.20
2023-01-17T12:12:55.999Z,4.30
2023-01-17T12:15:45.797Z,4.20
2023-01-17T12:18:34.904Z,4.20
2023-01-17T12:21:17.447Z,4.20
2023-01-17T12:24:02.913Z,4.30
2023-01-17T12:26:44.158Z,4.30
2023-01-17T12:29:36.967Z,4.40
2023-01-17T12:32:28.985Z,4.30
2023-01-17T12:35:02.850Z,4.40
2023-01-17T12:37:37.001Z,4.50
2023-01-17T12:40:15.865Z,4.60
2023-01-17T12:42:49.696Z,4.60
2023-01-17T12:45:25.501Z,4.60
2023-01-17T12:47:59.129Z,4.60
2023-01-17T12:50:35.618Z,4.60
2023-01-17T12:53:11.710Z,4.70
2023-01-17T12:55:48.478Z,4.60
2023-01-17T12:58:23.719Z,4.70
2023-01-17T13:01:00.932Z,4.70
2023-01-17T13:03:41.821Z,4.80
2023-01-17T13:06:20.960Z,4.80
2023-01-17T13:08:54.243Z,4.80
2023-01-17T13:11:27.939Z,4.80
2023-01-17T13:13:59.901Z,4.80
2023-01-17T13:16:34.584Z,4.70
2023-01-17T13:19:10.192Z,4.70
2023-01-17T13:21:38.333Z,4.70
2023-01-17T13:24:27.658Z,4.70
2023-01-17T13:27:27.495Z,4.60
2023-01-17T13:30:23.845Z,4.60
2023-01-17T13:33:20.737Z,4.50
2023-01-17T13:35:58.199Z,4.60
2023-01-17T13:38:44.223Z,4.60
2023-01-17T13:41:26.916Z,4.70
2023-01-17T13:44:09.250Z,4.70
2023-01-17T13:46:58.687Z,5.00
2023-01-17T13:49:35.793Z,5.20
2023-01-17T13:52:10.677Z,5.40
2023-01-17T13:54:46.323Z,5.30
2023-01-17T13:57:41.827Z,5.50
2023-01-17T14:00:51.520Z,5.50
2023-01-17T14:03:53.204Z,5.60
2023-01-17T14:06:37.322Z,5.50
2023-01-17T14:09:13.574Z,5.60
2023-01-17T14:11:59.741Z,5.70
2023-01-17T14:14:44.803Z,5.60
2023-01-17T14:17:57.474Z,5.70
2023-01-17T14:20:47.465Z,5.80
2023-01-17T14:23:36.457Z,5.90
2023-01-17T14:26:24.524Z,5.80
2023-01-17T14:28:53.625Z,5.90
2023-01-17T14:31:23.380Z,5.90
2023-01-17T14:33:51.746Z,5.90
2023-01-17T14:36:26.766Z,5.90
2023-01-17T14:38:56.398Z,5.80
2023-01-17T14:41:31.077Z,5.90
2023-01-17T14:44:01.215Z,5.80
2023-01-17T14:46:32.229Z,5.70
2023-01-17T14:49:02.453Z,5.90
2023-01-17T14:51:35.032Z,5.90
2023-01-17T14:54:16.880Z,5.80
2023-01-17T14:56:45.395Z,5.80
2023-01-17T14:59:17.241Z,5.80
2023-01-17T15:02:06.788Z,5.70
2023-01-17T15:04:39.679Z,5.80
2023-01-17T15:07:13.762Z,5.60
2023-01-17T15:09:44.874Z,5.70
2023-01-17T15:12:14.921Z,5.70
2023-01-17T15:14:46.241Z,5.70
2023-01-17T15:17:20.324Z,5.70
2023-01-17T15:19:52.480Z,5.80
2023-01-17T15:22:21.467Z,5.90
2023-01-17T15:24:51.737Z,5.90
2023-01-17T15:27:20.393Z,5.80
2023-01-17T15:29:49.275Z,5.80
2023-01-17T15:32:22.342Z,5.80
2023-01-17T15:34:52.404Z,5.70
2023-01-17T15:37:29.502Z,5.70
2023-01-17T15:40:12.518Z,5.80
2023-01-17T15:42:43.695Z,5.80
2023-01-17T15:45:16.047Z,5.80
2023-01-17T15:47:44.508Z,5.80
2023-01-17T15:50:30.211Z,5.80
2023-01-17T15:53:00.962Z,5.80
2023-01-17T15:55:34.153Z,5.80
2023-01-17T15:58:02.966Z,5.80
2023-01-17T16:00:38.332Z,5.80
2023-01-17T16:03:22.636Z,5.70
2023-01-17T16:05:51.941Z,5.60
2023-01-17T16:08:32.708Z,5.60
2023-01-17T16:11:03.855Z,5.40
2023-01-17T16:13:34.012Z,5.40
2023-01-17T16:16:13.177Z,5.40
2023-01-17T16:18:41.835Z,5.30
2023-01-17T16:21:34.860Z,5.30
2023-01-17T16:24:03.851Z,5.20
2023-01-17T16:26:33.720Z,5.00
2023-01-17T16:29:01.875Z,5.10
2023-01-17T16:31:30.036Z,5.20
2023-01-17T16:33:58.241Z,5.20
2023-01-17T16:36:26.470Z,5.00
2023-01-17T16:38:54.625Z,5.10
2023-01-17T16:41:22.866Z,5.20
2023-01-17T16:44:01.073Z,5.30
2023-01-17T16:46:30.324Z,5.30
2023-01-17T16:49:00.959Z,5.30
2023-01-17T16:51:29.230Z,5.30
2023-01-17T16:53:58.144Z,5.30
2023-01-17T16:56:26.458Z,5.30
2023-01-17T16:58:54.979Z,5.30
2023-01-17T17:01:25.397Z,5.20
2023-01-17T17:03:53.787Z,5.10
2023-01-17T17:06:21.933Z,5.10
2023-01-17T17:08:50.088Z,5.10
2023-01-17T17:11:19.767Z,5.10
2023-01-17T17:13:49.876Z,5.10
2023-01-17T17:16:20.242Z,5.20
2023-01-17T17:18:58.487Z,5.20
2023-01-17T17:21:27.451Z,5.20
2023-01-17T17:23:58.221Z,5.20
2023-01-17T17:26:29.006Z,5.20
2023-01-17T17:28:58.021Z,5.20
2023-01-17T17:31:26.424Z,5.20
2023-01-17T17:33:59.133Z,5.20
2023-01-17T17:36:27.583Z,5.30
2023-01-17T17:38:59.394Z,5.30
2023-01-17T17:41:29.883Z,5.20
2023-01-17T17:43:58.148Z,5.20
2023-01-17T17:46:27.332Z,5.10
2023-01-17T17:48:57.870Z,5.10
2023-01-17T17:51:28.096Z,5.00
2023-01-17T17:54:00.902Z,5.00
2023-01-17T17:56:29.823Z,5.10
2023-01-17T17:58:58.709Z,5.10
2023-01-17T18:01:28.026Z,5.10
2023-01-17T18:04:01.595Z,5.20
2023-01-17T18:06:29.836Z,5.30
2023-01-17T18:08:58.014Z,5.30
2023-01-17T18:11:27.392Z,5.10
2023-01-17T18:13:57.307Z,4.90
2023-01-17T18:16:28.705Z,4.40
2023-01-17T18:19:00.102Z,4.30
2023-01-17T18:21:29.880Z,4.30
2023-01-17T18:24:00.049Z,3.90
2023-01-17T18:26:30.165Z,3.90
2023-01-17T18:29:00.232Z,3.70
2023-01-17T18:31:30.347Z,4.00
2023-01-17T18:34:02.483Z,3.90
2023-01-17T18:36:30.729Z,4.10
2023-01-17T18:38:59.107Z,3.60
2023-01-17T18:41:29.333Z,3.50
2023-01-17T18:43:57.903Z,3.50
2023-01-17T18:46:27.407Z,3.20
2023-01-17T18:48:58.098Z,3.20
2023-01-17T18:51:29.592Z,3.20
2023-01-17T18:53:58.076Z,3.20
2023-01-17T18:56:30.561Z,3.10
2023-01-17T18:58:59.331Z,3.40
2023-01-17T19:01:28.983Z,3.50
2023-01-17T19:03:58.803Z,3.60
2023-01-17T19:06:30.342Z,3.60
2023-01-17T19:08:59.962Z,3.70
2023-01-17T19:11:29.360Z,3.40
2023-01-17T19:13:58.019Z,3.30
2023-01-17T19:16:28.882Z,3.00
2023-01-17T19:18:58.341Z,2.90
2023-01-17T19:21:29.154Z,2.80
2023-01-17T19:23:58.385Z,2.90
2023-01-17T19:26:27.706Z,3.20
2023-01-17T19:28:58.664Z,3.50
2023-01-17T19:31:28.802Z,3.70
2023-01-17T19:33:58.152Z,3.80
2023-01-17T19:36:29.600Z,4.00
2023-01-17T19:39:06.317Z,4.20
2023-01-17T19:41:37.064Z,4.30
2023-01-17T19:44:06.834Z,4.50
2023-01-17T19:46:36.363Z,4.50
2023-01-17T19:49:05.650Z,4.50
2023-01-17T19:51:35.877Z,4.50
2023-01-17T19:54:06.470Z,4.50
2023-01-17T19:56:34.820Z,4.60
2023-01-17T19:59:03.122Z,4.50
2023-01-17T20:01:33.330Z,4.20
2023-01-17T20:04:02.566Z,4.20
2023-01-17T20:06:34.009Z,4.40
2023-01-17T20:09:04.747Z,4.40
2023-01-17T20:11:33.013Z,4.40
2023-01-17T20:14:01.196Z,4.40
2023-01-17T20:16:31.202Z,4.50
2023-01-17T20:19:00.279Z,4.50
2023-01-17T20:21:30.370Z,4.50
2023-01-17T20:24:00.394Z,4.50
2023-01-17T20:26:34.929Z,4.50
2023-01-17T20:29:06.836Z,4.50
2023-01-17T20:31:38.076Z,4.50
2023-01-17T20:34:08.125Z,4.50
2023-01-17T20:36:37.033Z,4.50
2023-01-17T20:39:06.750Z,4.20
2023-01-17T20:41:38.035Z,4.30
2023-01-17T20:44:08.128Z,4.20
2023-01-17T20:46:40.605Z,4.20
2023-01-17T20:49:13.368Z,4.10
2023-01-17T20:51:44.238Z,4.20
2023-01-17T20:54:14.989Z,4.20
2023-01-17T20:56:47.184Z,3.80
2023-01-17T20:59:17.804Z,3.80
2023-01-17T21:01:49.408Z,3.40
2023-01-17T21:04:25.401Z,3.60
2023-01-17T21:06:54.778Z,3.80
2023-01-17T21:09:23.140Z,3.90
2023-01-17T21:11:54.400Z,4.00
2023-01-17T21:14:25.158Z,3.80
2023-01-17T21:16:53.438Z,3.20
2023-01-17T21:19:22.778Z,2.90
2023-01-17T21:21:51.231Z,2.30
2023-01-17T21:24:20.102Z,2.00
2023-01-17T21:26:51.363Z,2.00
2023-01-17T21:29:23.483Z,2.00
2023-01-17T21:31:51.763Z,2.00
2023-01-17T21:34:20.049Z,2.30
2023-01-17T21:36:48.382Z,2.30
2023-01-17T21:39:18.864Z,2.20
2023-01-17T21:41:51.011Z,2.20
2023-01-17T21:44:22.445Z,2.20
2023-01-17T21:46:53.625Z,2.20
2023-01-17T21:49:23.717Z,2.40
2023-01-17T21:52:09.233Z,2.80
2023-01-17T21:54:54.671Z,3.10
2023-01-17T21:57:41.129Z,3.30
2023-01-17T22:00:14.386Z,3.60
2023-01-17T22:02:44.402Z,3.60
2023-01-17T22:05:13.126Z,3.70
2023-01-17T22:08:01.585Z,3.70
2023-01-17T22:10:29.964Z,3.50
2023-01-17T22:12:59.010Z,3.10
2023-01-17T22:15:28.650Z,3.00
2023-01-17T22:17:57.207Z,2.80
2023-01-17T22:20:25.808Z,2.40
2023-01-17T22:22:54.170Z,2.00
2023-01-17T22:25:23.333Z,2.10
2023-01-17T22:27:51.568Z,2.00
2023-01-17T22:30:20.203Z,2.00
2023-01-17T22:32:49.882Z,2.20
2023-01-17T22:35:18.230Z,2.30
2023-01-17T22:37:46.442Z,2.00
2023-01-17T22:40:15.106Z,1.90
2023-01-17T22:42:43.303Z,1.80
2023-01-17T22:45:12.477Z,2.00
2023-01-17T22:47:40.736Z,2.00
2023-01-17T22:50:12.325Z,2.10
2023-01-17T22:52:40.653Z,2.50
2023-01-17T22:55:09.683Z,2.80
2023-01-17T22:57:37.951Z,3.00
2023-01-17T23:00:14.494Z,3.20
2023-01-17T23:02:43.286Z,3.00
2023-01-17T23:05:12.969Z,2.90
2023-01-17T23:07:44.424Z,3.10
2023-01-17T23:10:34.644Z,3.00
2023-01-17T23:13:02.967Z,3.20
2023-01-17T23:15:48.274Z,3.30
2023-01-17T23:18:33.946Z,3.40
2023-01-17T23:21:03.906Z,3.50
2023-01-17T23:23:33.297Z,3.50
2023-01-17T23:26:02.173Z,3.50
2023-01-17T23:28:29.371Z,3.30
2023-01-17T23:31:03.548Z,3.40
2023-01-17T23:33:31.841Z,3.50
2023-01-17T23:36:00.105Z,3.40
2023-01-17T23:38:34.268Z,3.50
2023-01-17T23:41:22.233Z,3.50
2023-01-17T23:43:54.069Z,3.40
2023-01-17T23:46:22.839Z,3.50
2023-01-17T23:48:51.110Z,3.50
2023-01-17T23:51:19.679Z,3.50
2023-01-17T23:53:57.344Z,3.60
2023-01-17T23:56:26.148Z,3.50
2023-01-17T23:58:54.295Z,3.30
